Time;durP1;ratioP1;P1;durP2;ratioP2;P2;SDS_P1;SDS_P2;PMS_P1;PMS_P2;Temp;Humidity;BMP_temperature;BMP_pressure;BME280_temperature;BME280_humidity;BME280_pressure;Samples;Min_cycle;Max_cycle;Signal;HPM_P1;HPM_P2
2023/06/25 00:01:09;;;;;;;14.70;12.77;;;;;;;;;;5013700;28;20486;-64
2023/06/25 00:03:36;;;;;;;14.30;12.90;;;;;;;;;;5013863;28;20446;-64
2023/06/25 00:06:04;;;;;;;14.60;12.50;;;;;;;;;;5013661;28;20807;-65
2023/06/25 00:08:31;;;;;;;13.53;12.20;;;;;;;;;;5013383;28;20450;-64
2023/06/25 00:10:58;;;;;;;14.77;13.07;;;;;;;;;;5013204;28;20451;-65
2023/06/25 00:13:25;;;;;;;15.43;13.03;;;;;;;;;;5013391;28;20939;-64
2023/06/25 00:15:52;;;;;;;14.10;12.63;;;;;;;;;;5013654;28;20469;-65
2023/06/25 00:18:21;;;;;;;13.57;11.90;;;;;;;;;;5013630;28;20450;-64
2023/06/25 00:20:48;;;;;;;14.37;11.23;;;;;;;;;;5012843;28;20501;-65
2023/06/25 00:23:15;;;;;;;12.47;11.27;;;;;;;;;;5014071;28;20446;-64
2023/06/25 00:25:42;;;;;;;12.30;11.10;;;;;;;;;;5013598;28;20451;-64
2023/06/25 00:28:09;;;;;;;13.43;11.60;;;;;;;;;;5013628;28;20463;-64
2023/06/25 00:30:37;;;;;;;12.50;11.30;;;;;;;;;;5013219;28;20450;-64
2023/06/25 00:33:04;;;;;;;14.97;10.73;;;;;;;;;;5013433;28;20446;-64
2023/06/25 00:36:05;;;;;;;15.50;11.47;;;;;;;;;;5013333;28;20450;-65
2023/06/25 00:38:32;;;;;;;11.77;10.53;;;;;;;;;;5013325;28;20445;-66
2023/06/25 00:40:59;;;;;;;12.60;11.30;;;;;;;;;;5013326;28;20573;-65
2023/06/25 00:43:26;;;;;;;14.37;11.10;;;;;;;;;;5013344;28;20453;-65
2023/06/25 00:45:53;;;;;;;12.80;10.23;;;;;;;;;;5013272;28;20452;-65
2023/06/25 00:48:22;;;;;;;12.70;11.40;;;;;;;;;;5013418;28;20457;-66
2023/06/25 00:50:52;;;;;;;11.30;10.10;;;;;;;;;;5013099;28;20557;-65
2023/06/25 00:53:19;;;;;;;12.10;10.27;;;;;;;;;;5013239;28;20472;-64
2023/06/25 00:55:50;;;;;;;11.83;10.50;;;;;;;;;;5012709;28;20555;-66
2023/06/25 00:58:20;;;;;;;11.67;10.07;;;;;;;;;;5013473;28;20430;-64
2023/06/25 01:00:47;;;;;;;10.43;9.43;;;;;;;;;;5012965;28;20539;-66
2023/06/25 01:03:26;;;;;;;11.13;9.90;;;;;;;;;;5012843;28;20449;-65
2023/06/25 01:05:59;;;;;;;11.10;9.90;;;;;;;;;;5013098;28;20529;-65
2023/06/25 01:08:29;;;;;;;11.23;9.40;;;;;;;;;;5013228;28;20426;-64
2023/06/25 01:10:57;;;;;;;11.47;10.33;;;;;;;;;;5015338;28;20746;-66
2023/06/25 01:13:24;;;;;;;11.27;9.97;;;;;;;;;;5017053;28;20541;-70
2023/06/25 01:15:51;;;;;;;10.27;9.30;;;;;;;;;;5017077;28;20474;-65
2023/06/25 01:18:19;;;;;;;10.77;9.67;;;;;;;;;;5016619;28;20448;-65
2023/06/25 01:20:51;;;;;;;10.70;9.23;;;;;;;;;;5016272;28;20493;-65
2023/06/25 01:23:21;;;;;;;11.40;9.63;;;;;;;;;;5016300;28;20430;-64
2023/06/25 01:25:48;;;;;;;10.57;9.40;;;;;;;;;;5016957;28;20794;-66
2023/06/25 01:28:19;;;;;;;11.43;9.63;;;;;;;;;;5016102;28;20535;-65
2023/06/25 01:30:47;;;;;;;9.87;8.93;;;;;;;;;;5016748;28;20435;-64
2023/06/25 01:33:15;;;;;;;10.17;9.10;;;;;;;;;;5016437;28;20445;-65
2023/06/25 01:35:43;;;;;;;11.40;9.60;;;;;;;;;;5016735;28;20451;-66
2023/06/25 01:38:10;;;;;;;9.77;8.77;;;;;;;;;;5016444;28;20504;-65
2023/06/25 01:40:39;;;;;;;11.57;9.60;;;;;;;;;;5015926;28;20482;-65
2023/06/25 01:43:06;;;;;;;15.20;11.10;;;;;;;;;;5016062;28;20507;-64
2023/06/25 01:45:33;;;;;;;9.80;8.73;;;;;;;;;;5016299;28;20453;-64
2023/06/25 01:48:00;;;;;;;10.53;9.43;;;;;;;;;;5016081;28;20440;-64
2023/06/25 01:50:28;;;;;;;14.67;9.43;;;;;;;;;;5016171;28;20463;-64
2023/06/25 01:52:55;;;;;;;9.80;8.80;;;;;;;;;;5015943;28;20449;-64
2023/06/25 01:55:23;;;;;;;10.23;9.13;;;;;;;;;;5015696;28;20942;-65
2023/06/25 01:57:52;;;;;;;13.83;9.37;;;;;;;;;;5016134;28;20547;-65
2023/06/25 02:00:20;;;;;;;10.20;8.93;;;;;;;;;;5015934;28;20444;-65
2023/06/25 02:02:47;;;;;;;12.90;8.93;;;;;;;;;;5016189;28;20453;-64
2023/06/25 02:05:15;;;;;;;11.70;10.40;;;;;;;;;;5015549;28;20450;-64
2023/06/25 02:07:42;;;;;;;10.93;9.87;;;;;;;;;;5016019;28;20804;-65
2023/06/25 02:10:12;;;;;;;11.60;9.40;;;;;;;;;;5015826;28;20799;-65
2023/06/25 02:12:39;;;;;;;10.17;9.20;;;;;;;;;;5015395;28;20499;-65
2023/06/25 02:15:08;;;;;;;14.27;10.70;;;;;;;;;;5015917;28;20806;-65
2023/06/25 02:17:36;;;;;;;12.73;10.80;;;;;;;;;;5015571;28;20535;-64
2023/06/25 02:20:03;;;;;;;12.40;8.93;;;;;;;;;;5015102;28;20464;-65
2023/06/25 02:22:30;;;;;;;10.77;9.63;;;;;;;;;;5015269;28;20511;-64
2023/06/25 02:24:57;;;;;;;12.87;11.33;;;;;;;;;;5015209;28;20448;-64
2023/06/25 02:27:25;;;;;;;11.67;10.00;;;;;;;;;;5015100;28;20486;-65
2023/06/25 02:29:52;;;;;;;11.67;10.50;;;;;;;;;;5015088;28;20451;-65
2023/06/25 02:32:20;;;;;;;15.17;11.50;;;;;;;;;;5014907;28;20453;-65
2023/06/25 02:34:47;;;;;;;15.23;11.13;;;;;;;;;;5015373;28;20551;-65
2023/06/25 02:37:15;;;;;;;11.53;10.33;;;;;;;;;;5015580;28;20437;-64
2023/06/25 02:39:42;;;;;;;11.40;10.00;;;;;;;;;;5015311;28;20448;-64
2023/06/25 02:42:09;;;;;;;12.37;10.77;;;;;;;;;;5014694;28;20475;-65
2023/06/25 02:44:36;;;;;;;11.03;9.93;;;;;;;;;;5015331;28;20451;-65
2023/06/25 02:47:04;;;;;;;11.40;9.93;;;;;;;;;;5014730;28;20445;-65
2023/06/25 02:49:32;;;;;;;12.00;10.80;;;;;;;;;;5015009;28;20445;-65
2023/06/25 02:52:00;;;;;;;12.50;10.07;;;;;;;;;;5014461;28;20461;-65
2023/06/25 02:54:27;;;;;;;13.60;11.07;;;;;;;;;;5014835;28;20451;-66
2023/06/25 02:56:56;;;;;;;11.50;9.33;;;;;;;;;;5014813;28;20448;-66
2023/06/25 02:59:23;;;;;;;11.87;10.50;;;;;;;;;;5014706;28;20516;-65
2023/06/25 03:01:50;;;;;;;13.17;10.37;;;;;;;;;;5014810;28;20489;-65
2023/06/25 03:04:17;;;;;;;12.73;10.73;;;;;;;;;;5014811;28;20454;-65
2023/06/25 03:06:46;;;;;;;11.20;10.10;;;;;;;;;;5014643;28;20452;-65
2023/06/25 03:09:13;;;;;;;12.50;9.43;;;;;;;;;;5014496;28;20474;-64
2023/06/25 03:11:40;;;;;;;13.63;12.30;;;;;;;;;;5014904;28;20458;-65
2023/06/25 03:14:07;;;;;;;12.57;11.27;;;;;;;;;;5014243;28;20545;-64
2023/06/25 03:16:34;;;;;;;13.73;11.67;;;;;;;;;;5014682;28;20454;-65
2023/06/25 03:19:02;;;;;;;16.20;13.30;;;;;;;;;;5014553;28;20440;-65
2023/06/25 03:21:29;;;;;;;18.50;15.20;;;;;;;;;;5014455;28;20496;-64
2023/06/25 03:23:57;;;;;;;24.33;14.80;;;;;;;;;;5014598;28;20781;-64
2023/06/25 03:26:25;;;;;;;29.00;18.10;;;;;;;;;;5014351;28;20457;-65
2023/06/25 03:28:53;;;;;;;31.47;20.50;;;;;;;;;;5013930;28;20920;-64
2023/06/25 03:31:21;;;;;;;38.80;25.80;;;;;;;;;;5014278;28;20464;-65
2023/06/25 03:33:48;;;;;;;49.47;28.30;;;;;;;;;;5013622;28;20984;-65
2023/06/25 03:36:15;;;;;;;38.27;24.53;;;;;;;;;;5014531;28;20449;-65
2023/06/25 03:38:42;;;;;;;36.80;22.70;;;;;;;;;;5014048;28;20449;-70
2023/06/25 03:41:11;;;;;;;31.10;20.50;;;;;;;;;;5013965;28;20489;-68
2023/06/25 03:43:38;;;;;;;26.90;18.30;;;;;;;;;;5013974;28;20449;-69
2023/06/25 03:46:05;;;;;;;31.53;20.13;;;;;;;;;;5013719;28;20464;-69
2023/06/25 03:48:32;;;;;;;25.70;18.70;;;;;;;;;;5013927;28;20541;-69
2023/06/25 03:51:00;;;;;;;17.87;15.77;;;;;;;;;;5013624;28;20444;-70
2023/06/25 03:53:27;;;;;;;18.27;15.33;;;;;;;;;;5012697;28;20444;-69
2023/06/25 03:55:54;;;;;;;16.70;13.10;;;;;;;;;;5012780;28;20452;-69
2023/06/25 03:58:23;;;;;;;14.50;13.10;;;;;;;;;;5012987;28;20445;-69
2023/06/25 04:00:50;;;;;;;15.70;14.10;;;;;;;;;;5012986;28;20534;-69
2023/06/25 04:03:17;;;;;;;15.73;14.03;;;;;;;;;;5012830;28;20444;-69
2023/06/25 04:05:45;;;;;;;16.73;14.00;;;;;;;;;;5012529;28;20483;-69
2023/06/25 04:08:12;;;;;;;17.53;15.70;;;;;;;;;;5012998;28;20562;-69
2023/06/25 04:10:40;;;;;;;14.03;12.53;;;;;;;;;;5012297;28;20933;-69
2023/06/25 04:13:08;;;;;;;15.43;13.70;;;;;;;;;;5013221;28;20534;-69
2023/06/25 04:15:36;;;;;;;15.07;13.57;;;;;;;;;;5012666;28;20453;-69
2023/06/25 04:18:04;;;;;;;16.50;14.23;;;;;;;;;;5012918;28;20451;-70
2023/06/25 04:20:31;;;;;;;16.60;14.87;;;;;;;;;;5012605;28;20488;-68
2023/06/25 04:22:59;;;;;;;16.07;14.40;;;;;;;;;;5012745;28;21140;-69
2023/06/25 04:25:26;;;;;;;15.83;14.17;;;;;;;;;;5012848;28;20458;-70
2023/06/25 04:27:55;;;;;;;18.93;13.50;;;;;;;;;;5012730;28;20458;-69
2023/06/25 04:30:23;;;;;;;17.40;15.60;;;;;;;;;;5012368;28;20445;-68
2023/06/25 04:32:51;;;;;;;16.30;14.70;;;;;;;;;;5012752;28;20481;-69
2023/06/25 04:35:19;;;;;;;15.17;13.87;;;;;;;;;;5013031;28;20477;-69
2023/06/25 04:37:46;;;;;;;16.73;15.20;;;;;;;;;;5013069;28;20456;-69
2023/06/25 04:40:14;;;;;;;18.60;14.87;;;;;;;;;;5012678;28;20449;-69
2023/06/25 04:42:41;;;;;;;16.97;14.73;;;;;;;;;;5013210;28;20485;-68
2023/06/25 04:45:09;;;;;;;19.63;15.97;;;;;;;;;;5015388;28;20545;-69
2023/06/25 04:47:36;;;;;;;17.40;15.57;;;;;;;;;;5017016;28;20453;-68
2023/06/25 04:50:05;;;;;;;17.73;16.13;;;;;;;;;;5016454;28;20538;-69
2023/06/25 04:52:32;;;;;;;19.33;16.47;;;;;;;;;;5016983;28;20817;-69
2023/06/25 04:54:59;;;;;;;18.23;16.40;;;;;;;;;;5016708;28;20450;-69
2023/06/25 04:57:26;;;;;;;17.30;15.50;;;;;;;;;;5016631;28;20452;-69
2023/06/25 04:59:53;;;;;;;16.37;14.83;;;;;;;;;;5016516;28;20460;-69
2023/06/25 05:02:21;;;;;;;17.33;15.50;;;;;;;;;;5016645;28;20480;-68
2023/06/25 05:04:48;;;;;;;21.60;16.80;;;;;;;;;;5016659;28;20448;-68
2023/06/25 05:07:16;;;;;;;17.37;15.77;;;;;;;;;;5016968;28;20879;-68
2023/06/25 05:09:44;;;;;;;20.30;16.90;;;;;;;;;;5016427;28;20444;-69
2023/06/25 05:12:11;;;;;;;19.17;17.27;;;;;;;;;;5016285;28;21011;-69
2023/06/25 05:14:38;;;;;;;19.33;17.40;;;;;;;;;;5016933;28;20455;-69
2023/06/25 05:17:06;;;;;;;18.30;16.40;;;;;;;;;;5016245;28;20508;-69
2023/06/25 05:19:33;;;;;;;23.17;17.57;;;;;;;;;;5015660;28;20448;-69
2023/06/25 05:22:00;;;;;;;21.20;17.57;;;;;;;;;;5016216;28;20482;-68
2023/06/25 05:24:29;;;;;;;22.73;18.20;;;;;;;;;;5016264;28;20554;-69
2023/06/25 05:26:56;;;;;;;19.90;17.80;;;;;;;;;;5016601;28;20450;-69
2023/06/25 05:29:23;;;;;;;20.47;16.47;;;;;;;;;;5016962;28;20453;-69
2023/06/25 05:31:51;;;;;;;19.63;16.80;;;;;;;;;;5015643;28;20455;-69
2023/06/25 05:34:18;;;;;;;19.47;17.57;;;;;;;;;;5016227;28;20458;-68
2023/06/25 05:36:45;;;;;;;18.27;16.20;;;;;;;;;;5015443;28;20445;-69
2023/06/25 05:39:12;;;;;;;17.80;15.60;;;;;;;;;;5015630;28;20450;-69
2023/06/25 05:41:42;;;;;;;17.80;16.30;;;;;;;;;;5015576;28;20564;-69
2023/06/25 05:44:09;;;;;;;18.50;16.80;;;;;;;;;;5016030;28;20954;-69
2023/06/25 05:46:36;;;;;;;18.83;17.07;;;;;;;;;;5016198;28;20446;-69
2023/06/25 05:49:03;;;;;;;18.53;16.73;;;;;;;;;;5016042;28;20545;-69
2023/06/25 05:51:30;;;;;;;18.63;16.73;;;;;;;;;;5015657;28;20459;-69
2023/06/25 05:53:57;;;;;;;19.00;17.17;;;;;;;;;;5015886;28;20816;-69
2023/06/25 05:56:25;;;;;;;17.70;16.00;;;;;;;;;;5014997;28;20459;-69
2023/06/25 05:58:53;;;;;;;17.17;15.47;;;;;;;;;;5015552;28;20447;-69
2023/06/25 06:01:21;;;;;;;19.23;16.53;;;;;;;;;;5015141;28;20446;-69
2023/06/25 06:03:49;;;;;;;16.67;14.97;;;;;;;;;;5015602;28;20536;-68
2023/06/25 06:06:16;;;;;;;17.53;15.73;;;;;;;;;;5015479;28;20454;-69
2023/06/25 06:08:43;;;;;;;16.73;15.03;;;;;;;;;;5015707;28;21003;-68
2023/06/25 06:11:10;;;;;;;16.07;14.50;;;;;;;;;;5015099;28;20458;-69
2023/06/25 06:13:38;;;;;;;15.77;14.10;;;;;;;;;;5015715;28;20525;-69
2023/06/25 06:16:06;;;;;;;15.73;14.33;;;;;;;;;;5015455;28;20812;-69
2023/06/25 06:18:33;;;;;;;15.63;14.17;;;;;;;;;;5014929;28;20461;-69
2023/06/25 06:21:01;;;;;;;17.30;13.03;;;;;;;;;;5014811;28;20475;-69
2023/06/25 06:23:28;;;;;;;18.00;14.57;;;;;;;;;;5015551;28;20483;-68
2023/06/25 06:25:55;;;;;;;15.50;14.03;;;;;;;;;;5015293;28;20522;-68
2023/06/25 06:28:22;;;;;;;14.90;13.60;;;;;;;;;;5015598;28;20462;-68
2023/06/25 06:30:49;;;;;;;15.90;14.23;;;;;;;;;;5014712;28;20447;-71
2023/06/25 06:33:18;;;;;;;14.10;12.70;;;;;;;;;;5015333;28;20880;-68
2023/06/25 06:35:45;;;;;;;12.90;11.60;;;;;;;;;;5015462;28;20459;-68
2023/06/25 06:38:13;;;;;;;11.30;10.40;;;;;;;;;;5014839;28;21002;-67
2023/06/25 06:40:40;;;;;;;11.73;10.47;;;;;;;;;;5014496;28;20535;-69
2023/06/25 06:43:07;;;;;;;11.13;10.20;;;;;;;;;;5014574;28;20490;-68
2023/06/25 06:45:34;;;;;;;9.53;8.63;;;;;;;;;;5014887;28;20538;-68
2023/06/25 06:48:01;;;;;;;11.33;10.23;;;;;;;;;;5015168;28;20510;-66
2023/06/25 06:50:30;;;;;;;9.83;8.93;;;;;;;;;;5014372;28;20456;-69
2023/06/25 06:52:57;;;;;;;11.80;9.37;;;;;;;;;;5014737;28;20445;-67
2023/06/25 06:55:24;;;;;;;11.87;10.70;;;;;;;;;;5014900;28;20449;-67
2023/06/25 06:57:51;;;;;;;10.20;9.13;;;;;;;;;;5014368;28;20448;-68
2023/06/25 07:00:20;;;;;;;17.70;15.80;;;;;;;;;;5014158;28;20446;-68
2023/06/25 07:02:47;;;;;;;13.33;10.77;;;;;;;;;;5014460;28;20838;-67
2023/06/25 07:05:14;;;;;;;11.63;9.50;;;;;;;;;;5015033;28;20475;-66
2023/06/25 07:07:43;;;;;;;10.13;9.13;;;;;;;;;;5013502;28;20443;-67
2023/06/25 07:10:10;;;;;;;10.73;9.73;;;;;;;;;;5014665;28;20456;-68
2023/06/25 07:12:38;;;;;;;11.57;10.57;;;;;;;;;;5014272;28;20489;-68
2023/06/25 07:15:06;;;;;;;9.87;8.50;;;;;;;;;;5014970;28;20842;-68
2023/06/25 07:17:33;;;;;;;10.53;8.97;;;;;;;;;;5014609;28;20445;-68
2023/06/25 07:20:00;;;;;;;10.37;9.20;;;;;;;;;;5014061;28;20520;-69
2023/06/25 07:22:28;;;;;;;12.43;9.90;;;;;;;;;;5013444;28;20516;-70
2023/06/25 07:24:56;;;;;;;10.40;9.13;;;;;;;;;;5013724;28;20537;-68
2023/06/25 07:27:23;;;;;;;10.27;9.20;;;;;;;;;;5013383;28;20457;-68
2023/06/25 07:29:50;;;;;;;11.53;10.00;;;;;;;;;;5013487;28;20458;-68
2023/06/25 07:32:18;;;;;;;10.43;9.17;;;;;;;;;;5013383;28;20457;-68
2023/06/25 07:34:45;;;;;;;12.07;9.63;;;;;;;;;;5013441;28;20808;-68
2023/06/25 07:37:12;;;;;;;11.07;10.07;;;;;;;;;;5014135;28;20433;-69
2023/06/25 07:39:39;;;;;;;11.43;9.50;;;;;;;;;;5013859;28;20477;-67
2023/06/25 07:42:08;;;;;;;9.60;7.87;;;;;;;;;;5013669;28;20452;-68
2023/06/25 07:44:35;;;;;;;9.10;8.30;;;;;;;;;;5013291;28;20453;-69
2023/06/25 07:47:02;;;;;;;8.33;7.53;;;;;;;;;;5013524;28;20541;-68
2023/06/25 07:49:29;;;;;;;10.30;8.43;;;;;;;;;;5013524;28;20480;-68
2023/06/25 07:51:57;;;;;;;8.37;7.57;;;;;;;;;;5033377;28;20463;-68
2023/06/25 07:54:24;;;;;;;8.50;7.70;;;;;;;;;;5016162;28;20541;-68
2023/06/25 07:56:51;;;;;;;11.00;8.00;;;;;;;;;;5013833;28;20452;-68
2023/06/25 07:59:20;;;;;;;10.40;7.90;;;;;;;;;;5013851;28;20451;-68
2023/06/25 08:01:47;;;;;;;9.03;8.33;;;;;;;;;;5013757;28;20438;-68
2023/06/25 08:04:14;;;;;;;10.27;9.40;;;;;;;;;;5012967;28;20485;-68
2023/06/25 08:06:42;;;;;;;14.13;8.50;;;;;;;;;;5013094;28;20447;-69
2023/06/25 08:09:09;;;;;;;9.73;8.83;;;;;;;;;;5013314;28;20745;-68
2023/06/25 08:11:36;;;;;;;9.37;8.53;;;;;;;;;;5013066;28;20485;-68
2023/06/25 08:14:04;;;;;;;8.70;7.97;;;;;;;;;;5013085;28;20435;-68
2023/06/25 08:16:32;;;;;;;8.53;7.83;;;;;;;;;;5013325;28;20450;-68
2023/06/25 08:18:59;;;;;;;9.03;8.23;;;;;;;;;;5013092;28;20498;-68
2023/06/25 08:21:27;;;;;;;8.97;7.93;;;;;;;;;;5013113;28;20493;-68
2023/06/25 08:23:54;;;;;;;9.50;8.50;;;;;;;;;;5012981;28;20483;-68
2023/06/25 08:26:21;;;;;;;9.20;8.40;;;;;;;;;;5012654;28;20537;-68
2023/06/25 08:28:48;;;;;;;9.33;8.33;;;;;;;;;;5012399;28;20445;-68
2023/06/25 08:31:15;;;;;;;10.00;8.80;;;;;;;;;;5012673;28;20910;-69
2023/06/25 08:33:44;;;;;;;9.83;8.80;;;;;;;;;;5012766;28;20525;-68
2023/06/25 08:36:11;;;;;;;9.53;8.53;;;;;;;;;;5013081;28;20539;-68
2023/06/25 08:38:38;;;;;;;8.40;7.70;;;;;;;;;;5012777;28;20902;-69
2023/06/25 08:41:05;;;;;;;10.60;8.03;;;;;;;;;;5013346;28;20779;-68
2023/06/25 08:43:33;;;;;;;7.93;7.10;;;;;;;;;;5013017;28;20486;-68
2023/06/25 08:46:00;;;;;;;8.13;7.43;;;;;;;;;;5013017;28;20519;-68
2023/06/25 08:48:29;;;;;;;7.23;6.63;;;;;;;;;;5012805;28;20420;-67
2023/06/25 08:50:57;;;;;;;8.50;7.70;;;;;;;;;;5012273;28;20476;-68
2023/06/25 08:53:26;;;;;;;8.30;7.50;;;;;;;;;;5012761;28;20435;-67
2023/06/25 08:55:55;;;;;;;8.30;7.57;;;;;;;;;;5013165;28;20443;-68
2023/06/25 08:58:23;;;;;;;7.57;6.97;;;;;;;;;;5012845;28;20447;-68
2023/06/25 09:00:51;;;;;;;8.00;7.30;;;;;;;;;;5013167;28;20445;-68
2023/06/25 09:03:18;;;;;;;7.97;7.20;;;;;;;;;;5012811;28;20480;-68
2023/06/25 09:05:52;;;;;;;9.90;7.10;;;;;;;;;;5012494;28;20431;-68
2023/06/25 09:08:20;;;;;;;7.30;6.60;;;;;;;;;;5012559;28;20433;-68
2023/06/25 09:10:50;;;;;;;7.90;7.20;;;;;;;;;;5012897;28;20491;-69
2023/06/25 09:13:21;;;;;;;7.03;6.43;;;;;;;;;;5013342;28;20455;-69
2023/06/25 09:15:49;;;;;;;9.07;7.47;;;;;;;;;;5013565;28;20442;-67
2023/06/25 09:18:16;;;;;;;8.33;7.37;;;;;;;;;;5013349;28;20544;-68
2023/06/25 09:20:47;;;;;;;8.37;7.53;;;;;;;;;;5013212;28;20475;-67
2023/06/25 09:23:20;;;;;;;7.53;6.83;;;;;;;;;;5012999;28;20451;-67
2023/06/25 09:25:48;;;;;;;7.23;6.50;;;;;;;;;;5013265;28;20434;-68
2023/06/25 09:28:15;;;;;;;7.53;6.87;;;;;;;;;;5012628;28;20424;-68
2023/06/25 09:30:42;;;;;;;7.27;6.57;;;;;;;;;;5012682;28;20449;-68
2023/06/25 09:33:11;;;;;;;8.80;6.87;;;;;;;;;;5016487;28;20455;-68
2023/06/25 09:35:38;;;;;;;7.57;6.67;;;;;;;;;;5016758;28;20453;-68
2023/06/25 09:38:05;;;;;;;7.73;7.00;;;;;;;;;;5016268;28;20444;-68
2023/06/25 09:40:34;;;;;;;7.37;6.63;;;;;;;;;;5016866;28;20441;-69
2023/06/25 09:43:05;;;;;;;7.60;6.90;;;;;;;;;;5016328;28;20521;-68
2023/06/25 09:45:32;;;;;;;7.57;6.77;;;;;;;;;;5016731;28;20438;-67
2023/06/25 09:48:01;;;;;;;8.47;5.90;;;;;;;;;;5016312;28;20442;-71
2023/06/25 09:50:29;;;;;;;9.73;6.50;;;;;;;;;;5016436;28;20507;-68
2023/06/25 09:52:56;;;;;;;7.17;6.37;;;;;;;;;;5016334;28;20425;-68
2023/06/25 09:55:24;;;;;;;7.17;6.30;;;;;;;;;;5016301;28;20465;-68
2023/06/25 09:57:52;;;;;;;10.13;7.30;;;;;;;;;;5015798;28;20436;-69
2023/06/25 10:00:23;;;;;;;10.23;7.43;;;;;;;;;;5015055;28;20429;-68
2023/06/25 10:02:52;;;;;;;7.47;6.77;;;;;;;;;;5015313;28;20760;-67
2023/06/25 10:05:19;;;;;;;7.00;6.40;;;;;;;;;;5015207;28;20509;-70
2023/06/25 10:07:47;;;;;;;7.20;6.60;;;;;;;;;;5015430;28;20436;-68
2023/06/25 10:10:20;;;;;;;7.07;6.37;;;;;;;;;;5015824;28;20904;-68
2023/06/25 10:12:48;;;;;;;6.90;6.30;;;;;;;;;;5016163;28;20401;-68
2023/06/25 10:15:17;;;;;;;8.67;6.93;;;;;;;;;;5015759;28;20450;-69
2023/06/25 10:17:48;;;;;;;6.97;6.37;;;;;;;;;;5015590;28;20509;-68
2023/06/25 10:20:26;;;;;;;9.60;7.00;;;;;;;;;;5014981;28;20570;-68
2023/06/25 10:23:02;;;;;;;7.00;6.50;;;;;;;;;;5015066;28;20430;-69
2023/06/25 10:25:29;;;;;;;8.90;7.10;;;;;;;;;;5014870;28;20503;-69
2023/06/25 10:28:02;;;;;;;7.30;6.60;;;;;;;;;;5015285;28;20496;-68
2023/06/25 10:30:36;;;;;;;8.33;6.40;;;;;;;;;;5015490;28;20422;-68
2023/06/25 10:33:03;;;;;;;7.20;6.53;;;;;;;;;;5015174;28;20418;-68
2023/06/25 10:35:36;;;;;;;14.00;12.50;;;;;;;;;;5015194;28;20436;-69
2023/06/25 10:38:04;;;;;;;7.80;7.03;;;;;;;;;;5015367;28;20441;-68
2023/06/25 10:40:33;;;;;;;7.20;6.60;;;;;;;;;;5014462;28;20509;-69
2023/06/25 10:43:01;;;;;;;8.47;7.67;;;;;;;;;;5014454;28;20792;-68
2023/06/25 10:45:28;;;;;;;8.70;7.90;;;;;;;;;;5014443;28;20454;-68
2023/06/25 10:48:04;;;;;;;11.20;10.20;;;;;;;;;;5014866;28;20432;-68
2023/06/25 10:50:31;;;;;;;8.27;7.30;;;;;;;;;;5014940;28;20548;-67
2023/06/25 10:52:59;;;;;;;10.33;7.50;;;;;;;;;;5015142;28;20506;-68
2023/06/25 10:55:26;;;;;;;8.67;7.77;;;;;;;;;;5014938;28;20456;-68
2023/06/25 10:57:54;;;;;;;7.30;6.70;;;;;;;;;;5015056;28;20430;-68
2023/06/25 11:00:25;;;;;;;12.33;7.73;;;;;;;;;;5014611;28;20428;-69
2023/06/25 11:02:52;;;;;;;7.83;7.10;;;;;;;;;;5013869;28;20891;-69
2023/06/25 11:05:22;;;;;;;8.03;7.23;;;;;;;;;;5014171;28;20485;-69
2023/06/25 11:07:54;;;;;;;7.80;7.20;;;;;;;;;;5014543;28;20958;-68
2023/06/25 11:10:24;;;;;;;11.70;7.00;;;;;;;;;;5014800;28;20416;-68
2023/06/25 11:12:51;;;;;;;7.03;6.33;;;;;;;;;;5014909;28;20420;-68
2023/06/25 11:15:18;;;;;;;7.53;6.87;;;;;;;;;;5014262;28;20454;-68
2023/06/25 11:17:46;;;;;;;8.57;7.07;;;;;;;;;;5014518;28;20447;-68
2023/06/25 11:20:13;;;;;;;7.57;6.83;;;;;;;;;;5014066;28;20873;-68
2023/06/25 11:22:43;;;;;;;7.73;7.03;;;;;;;;;;5013997;28;20427;-68
2023/06/25 11:25:10;;;;;;;8.20;7.40;;;;;;;;;;5013558;28;20480;-68
2023/06/25 11:27:38;;;;;;;7.53;6.93;;;;;;;;;;5013657;28;20922;-68
2023/06/25 11:30:06;;;;;;;7.30;6.60;;;;;;;;;;5014623;28;20857;-66
2023/06/25 11:32:34;;;;;;;9.37;8.40;;;;;;;;;;5014589;28;20548;-67
2023/06/25 11:35:01;;;;;;;8.47;7.67;;;;;;;;;;5014250;28;20458;-67
2023/06/25 11:37:28;;;;;;;8.83;8.13;;;;;;;;;;5014096;28;20464;-68
2023/06/25 11:39:57;;;;;;;7.97;7.37;;;;;;;;;;5013638;28;20417;-67
2023/06/25 11:42:25;;;;;;;8.50;7.80;;;;;;;;;;5013042;28;20472;-68
2023/06/25 11:44:59;;;;;;;9.30;8.50;;;;;;;;;;5013496;28;20481;-69
2023/06/25 11:47:26;;;;;;;8.30;7.60;;;;;;;;;;5013162;28;20423;-67
2023/06/25 11:49:54;;;;;;;7.87;7.17;;;;;;;;;;5014472;28;20790;-69
2023/06/25 11:52:21;;;;;;;7.33;6.80;;;;;;;;;;5013985;28;20784;-68
2023/06/25 11:54:49;;;;;;;7.37;6.77;;;;;;;;;;5013484;28;20426;-68
2023/06/25 11:57:18;;;;;;;6.97;6.40;;;;;;;;;;5013816;28;20445;-68
2023/06/25 11:59:46;;;;;;;7.47;6.87;;;;;;;;;;5013743;28;20812;-68
2023/06/25 12:02:13;;;;;;;7.23;6.73;;;;;;;;;;5014043;28;20783;-68
2023/06/25 12:04:40;;;;;;;9.47;7.83;;;;;;;;;;5014059;28;20488;-68
2023/06/25 12:07:08;;;;;;;6.93;6.33;;;;;;;;;;5013794;28;20443;-68
2023/06/25 12:09:35;;;;;;;7.60;6.93;;;;;;;;;;5013840;28;20446;-68
2023/06/25 12:12:02;;;;;;;6.50;6.00;;;;;;;;;;5013797;28;20470;-68
2023/06/25 12:14:31;;;;;;;8.37;7.67;;;;;;;;;;5013629;28;20424;-68
2023/06/25 12:16:58;;;;;;;8.33;7.53;;;;;;;;;;5013556;28;20447;-67
2023/06/25 12:19:25;;;;;;;7.97;7.33;;;;;;;;;;5013438;28;20426;-67
2023/06/25 12:21:52;;;;;;;7.70;7.00;;;;;;;;;;5012995;28;20491;-68
2023/06/25 12:24:20;;;;;;;7.03;6.33;;;;;;;;;;5013213;28;20463;-67
2023/06/25 12:26:47;;;;;;;8.33;7.63;;;;;;;;;;5013177;28;20442;-67
2023/06/25 12:29:14;;;;;;;9.17;7.80;;;;;;;;;;5013953;28;20452;-68
2023/06/25 12:31:43;;;;;;;7.40;6.70;;;;;;;;;;5013100;28;20539;-68
2023/06/25 12:34:11;;;;;;;7.17;6.43;;;;;;;;;;5013645;28;20444;-68
2023/06/25 12:36:38;;;;;;;8.20;7.40;;;;;;;;;;5013140;28;20446;-68
2023/06/25 12:39:05;;;;;;;7.40;6.80;;;;;;;;;;5013363;28;20497;-68
2023/06/25 12:41:33;;;;;;;7.93;7.20;;;;;;;;;;5012878;28;20534;-68
2023/06/25 12:44:00;;;;;;;8.10;7.40;;;;;;;;;;5012942;28;20475;-68
2023/06/25 12:46:27;;;;;;;7.03;6.50;;;;;;;;;;5013325;28;20449;-67
2023/06/25 12:48:55;;;;;;;7.23;6.43;;;;;;;;;;5012126;28;20447;-67
2023/06/25 12:51:23;;;;;;;7.30;6.70;;;;;;;;;;5012437;28;20745;-68
2023/06/25 12:53:50;;;;;;;7.53;6.93;;;;;;;;;;5012570;28;20477;-67
2023/06/25 12:56:18;;;;;;;7.23;6.63;;;;;;;;;;5012650;28;20462;-67
2023/06/25 12:58:45;;;;;;;7.23;6.63;;;;;;;;;;5013223;28;20497;-67
2023/06/25 13:01:14;;;;;;;7.10;6.50;;;;;;;;;;5013021;28;20942;-67
2023/06/25 13:03:41;;;;;;;7.67;6.97;;;;;;;;;;5012672;28;20451;-68
2023/06/25 13:06:09;;;;;;;7.93;7.30;;;;;;;;;;5013441;28;20464;-67
2023/06/25 13:08:36;;;;;;;12.13;6.73;;;;;;;;;;5016580;28;20435;-70
2023/06/25 13:11:04;;;;;;;9.00;6.93;;;;;;;;;;5016071;28;20557;-70
2023/06/25 13:13:31;;;;;;;7.37;6.67;;;;;;;;;;5015987;28;20504;-68
2023/06/25 13:15:58;;;;;;;6.77;6.27;;;;;;;;;;5016120;28;20451;-68
2023/06/25 13:18:25;;;;;;;7.50;6.80;;;;;;;;;;5016317;28;20444;-68
2023/06/25 13:20:52;;;;;;;7.23;6.70;;;;;;;;;;5016259;28;20908;-68
2023/06/25 13:23:21;;;;;;;11.00;7.37;;;;;;;;;;5016338;28;20453;-68
2023/06/25 13:25:48;;;;;;;7.20;6.50;;;;;;;;;;5016675;28;20541;-68
2023/06/25 13:28:15;;;;;;;8.47;7.50;;;;;;;;;;5016715;28;20449;-68
2023/06/25 13:30:45;;;;;;;7.20;6.70;;;;;;;;;;5015405;28;20454;-69
2023/06/25 13:33:13;;;;;;;8.20;6.70;;;;;;;;;;5015876;28;20445;-70
2023/06/25 13:35:40;;;;;;;7.07;6.47;;;;;;;;;;5015908;28;20453;-68
2023/06/25 13:38:07;;;;;;;6.97;6.43;;;;;;;;;;5016322;28;20542;-70
2023/06/25 13:40:36;;;;;;;6.73;6.23;;;;;;;;;;5015882;28;20441;-71
2023/06/25 13:43:03;;;;;;;7.40;6.80;;;;;;;;;;5015838;28;20449;-72
2023/06/25 13:45:30;;;;;;;7.20;6.57;;;;;;;;;;5015895;28;20858;-69
2023/06/25 13:47:58;;;;;;;7.30;6.60;;;;;;;;;;5015911;28;20450;-69
2023/06/25 13:50:25;;;;;;;7.40;6.80;;;;;;;;;;5015289;28;20465;-70
2023/06/25 13:52:52;;;;;;;7.60;7.00;;;;;;;;;;5015094;28;20618;-69
2023/06/25 13:55:19;;;;;;;7.60;7.00;;;;;;;;;;5015059;28;20867;-70
2023/06/25 13:57:48;;;;;;;6.63;6.13;;;;;;;;;;5015192;28;20442;-71
2023/06/25 14:00:15;;;;;;;7.93;7.13;;;;;;;;;;5015946;28;20564;-74
2023/06/25 14:02:44;;;;;;;9.20;5.90;;;;;;;;;;5015766;28;20451;-71
2023/06/25 14:05:12;;;;;;;6.80;6.20;;;;;;;;;;5015535;28;20482;-69
2023/06/25 14:07:39;;;;;;;6.50;6.00;;;;;;;;;;5015758;28;20506;-68
2023/06/25 14:10:07;;;;;;;7.47;6.63;;;;;;;;;;5015813;28;20450;-67
2023/06/25 14:12:34;;;;;;;7.20;6.67;;;;;;;;;;5014313;28;20482;-68
2023/06/25 14:15:03;;;;;;;6.80;6.20;;;;;;;;;;5015635;28;20773;-69
2023/06/25 14:17:30;;;;;;;6.83;6.33;;;;;;;;;;5014957;28;20940;-67
2023/06/25 14:19:57;;;;;;;7.43;6.73;;;;;;;;;;5015464;28;20577;-68
2023/06/25 14:22:24;;;;;;;7.03;6.37;;;;;;;;;;5014999;28;20518;-68
2023/06/25 14:24:53;;;;;;;6.43;5.97;;;;;;;;;;5015108;28;20983;-68
2023/06/25 14:27:20;;;;;;;6.73;6.13;;;;;;;;;;5015395;28;20948;-69
2023/06/25 14:29:48;;;;;;;7.27;6.77;;;;;;;;;;5015110;28;20457;-68
2023/06/25 14:32:16;;;;;;;6.73;6.20;;;;;;;;;;5015207;28;20506;-71
2023/06/25 14:34:43;;;;;;;7.60;7.00;;;;;;;;;;5014910;28;20453;-68